sensor_id;sensor_type;location;lat;lon;timestamp;pressure;altitude;pressure_sealevel;temperature;humidity
51147;BME280;37207;53.060;18.726;2023-05-27T00:00:07;101781.36;;;8.84;67.36
51147;BME280;37207;53.060;18.726;2023-05-27T00:02:54;101779.40;;;8.84;67.29
51147;BME280;37207;53.060;18.726;2023-05-27T00:05:20;101777.22;;;8.83;67.33
51147;BME280;37207;53.060;18.726;2023-05-27T00:07:46;101782.95;;;8.82;67.23
51147;BME280;37207;53.060;18.726;2023-05-27T00:10:12;101785.60;;;8.81;67.83
51147;BME280;37207;53.060;18.726;2023-05-27T00:12:38;101779.35;;;8.79;67.77
51147;BME280;37207;53.060;18.726;2023-05-27T00:15:04;101778.73;;;8.76;67.50
51147;BME280;37207;53.060;18.726;2023-05-27T00:17:30;101778.92;;;8.72;67.75
51147;BME280;37207;53.060;18.726;2023-05-27T00:19:56;101781.05;;;8.67;67.49
51147;BME280;37207;53.060;18.726;2023-05-27T00:22:22;101779.84;;;8.62;67.68
51147;BME280;37207;53.060;18.726;2023-05-27T00:24:48;101780.45;;;8.57;67.39
51147;BME280;37207;53.060;18.726;2023-05-27T00:27:14;101775.45;;;8.53;67.62
51147;BME280;37207;53.060;18.726;2023-05-27T00:29:40;101777.67;;;8.48;67.64
51147;BME280;37207;53.060;18.726;2023-05-27T00:32:06;101781.16;;;8.45;68.09
51147;BME280;37207;53.060;18.726;2023-05-27T00:34:32;101780.83;;;8.43;68.05
51147;BME280;37207;53.060;18.726;2023-05-27T00:37:01;101777.09;;;8.42;68.13
51147;BME280;37207;53.060;18.726;2023-05-27T00:39:28;101782.58;;;8.37;68.16
51147;BME280;37207;53.060;18.726;2023-05-27T00:41:54;101778.30;;;8.33;68.29
51147;BME280;37207;53.060;18.726;2023-05-27T00:44:20;101778.33;;;8.29;68.39
51147;BME280;37207;53.060;18.726;2023-05-27T00:46:48;101780.66;;;8.28;68.45
51147;BME280;37207;53.060;18.726;2023-05-27T00:49:14;101780.78;;;8.26;68.60
51147;BME280;37207;53.060;18.726;2023-05-27T00:51:41;101787.21;;;8.24;68.76
51147;BME280;37207;53.060;18.726;2023-05-27T00:54:07;101784.57;;;8.23;68.90
51147;BME280;37207;53.060;18.726;2023-05-27T00:56:34;101786.40;;;8.23;68.99
51147;BME280;37207;53.060;18.726;2023-05-27T00:59:01;101791.45;;;8.22;68.99
51147;BME280;37207;53.060;18.726;2023-05-27T01:01:26;101789.62;;;8.17;68.69
51147;BME280;37207;53.060;18.726;2023-05-27T01:03:55;101790.46;;;8.13;68.95
51147;BME280;37207;53.060;18.726;2023-05-27T01:06:39;101794.15;;;8.09;68.96
51147;BME280;37207;53.060;18.726;2023-05-27T01:11:50;101799.09;;;7.97;69.49
51147;BME280;37207;53.060;18.726;2023-05-27T01:14:18;101804.04;;;7.93;69.84
51147;BME280;37207;53.060;18.726;2023-05-27T01:16:46;101804.33;;;7.91;69.87
51147;BME280;37207;53.060;18.726;2023-05-27T01:19:17;101806.33;;;7.90;69.78
51147;BME280;37207;53.060;18.726;2023-05-27T01:21:48;101807.34;;;7.90;70.07
51147;BME280;37207;53.060;18.726;2023-05-27T01:24:18;101814.70;;;7.91;69.98
51147;BME280;37207;53.060;18.726;2023-05-27T01:26:44;101808.95;;;7.92;69.91
51147;BME280;37207;53.060;18.726;2023-05-27T01:29:10;101807.69;;;7.92;70.12
51147;BME280;37207;53.060;18.726;2023-05-27T01:31:51;101811.39;;;7.92;70.14
51147;BME280;37207;53.060;18.726;2023-05-27T01:34:26;101809.34;;;7.92;70.27
51147;BME280;37207;53.060;18.726;2023-05-27T01:36:58;101807.08;;;7.92;70.08
51147;BME280;37207;53.060;18.726;2023-05-27T01:39:27;101808.64;;;7.92;70.42
51147;BME280;37207;53.060;18.726;2023-05-27T01:41:54;101809.55;;;7.92;70.39
51147;BME280;37207;53.060;18.726;2023-05-27T01:44:23;101808.55;;;7.92;70.60
51147;BME280;37207;53.060;18.726;2023-05-27T01:46:49;101808.55;;;7.92;70.68
51147;BME280;37207;53.060;18.726;2023-05-27T01:49:15;101810.00;;;7.93;70.95
51147;BME280;37207;53.060;18.726;2023-05-27T01:51:40;101806.94;;;7.93;70.83
51147;BME280;37207;53.060;18.726;2023-05-27T01:54:06;101805.91;;;7.94;70.87
51147;BME280;37207;53.060;18.726;2023-05-27T01:56:33;101805.11;;;7.91;70.87
51147;BME280;37207;53.060;18.726;2023-05-27T01:58:59;101807.13;;;7.89;71.02
51147;BME280;37207;53.060;18.726;2023-05-27T02:01:24;101803.35;;;7.87;71.02
51147;BME280;37207;53.060;18.726;2023-05-27T02:03:51;101806.91;;;7.86;71.40
51147;BME280;37207;53.060;18.726;2023-05-27T02:06:17;101808.77;;;7.85;71.22
51147;BME280;37207;53.060;18.726;2023-05-27T02:08:43;101804.80;;;7.83;71.40
51147;BME280;37207;53.060;18.726;2023-05-27T02:11:09;101801.49;;;7.83;71.73
51147;BME280;37207;53.060;18.726;2023-05-27T02:13:34;101803.41;;;7.82;71.65
51147;BME280;37207;53.060;18.726;2023-05-27T02:16:02;101801.95;;;7.81;71.74
51147;BME280;37207;53.060;18.726;2023-05-27T02:18:28;101803.52;;;7.79;71.68
51147;BME280;37207;53.060;18.726;2023-05-27T02:20:54;101804.26;;;7.78;71.89
51147;BME280;37207;53.060;18.726;2023-05-27T02:23:20;101810.72;;;7.77;71.95
51147;BME280;37207;53.060;18.726;2023-05-27T02:25:45;101807.66;;;7.77;71.88
51147;BME280;37207;53.060;18.726;2023-05-27T02:28:11;101806.73;;;7.76;72.04
51147;BME280;37207;53.060;18.726;2023-05-27T02:30:38;101806.38;;;7.75;72.18
51147;BME280;37207;53.060;18.726;2023-05-27T02:33:04;101808.02;;;7.75;71.84
51147;BME280;37207;53.060;18.726;2023-05-27T02:35:30;101812.17;;;7.76;72.15
51147;BME280;37207;53.060;18.726;2023-05-27T02:37:56;101814.02;;;7.77;72.25
51147;BME280;37207;53.060;18.726;2023-05-27T02:40:29;101815.44;;;7.77;72.27
51147;BME280;37207;53.060;18.726;2023-05-27T02:42:56;101817.80;;;7.77;72.42
51147;BME280;37207;53.060;18.726;2023-05-27T02:45:23;101821.36;;;7.76;72.55
51147;BME280;37207;53.060;18.726;2023-05-27T02:47:50;101817.29;;;7.75;72.25
51147;BME280;37207;53.060;18.726;2023-05-27T02:50:16;101819.48;;;7.76;72.51
51147;BME280;37207;53.060;18.726;2023-05-27T02:52:42;101817.13;;;7.76;72.52
51147;BME280;37207;53.060;18.726;2023-05-27T02:55:08;101817.67;;;7.76;72.33
51147;BME280;37207;53.060;18.726;2023-05-27T02:57:34;101819.09;;;7.76;72.70
51147;BME280;37207;53.060;18.726;2023-05-27T03:00:01;101825.82;;;7.77;72.57
51147;BME280;37207;53.060;18.726;2023-05-27T03:02:28;101820.27;;;7.78;72.70
51147;BME280;37207;53.060;18.726;2023-05-27T03:04:54;101826.33;;;7.80;72.95
51147;BME280;37207;53.060;18.726;2023-05-27T03:07:21;101820.13;;;7.83;72.96
51147;BME280;37207;53.060;18.726;2023-05-27T03:09:47;101824.30;;;7.85;72.89
51147;BME280;37207;53.060;18.726;2023-05-27T03:12:13;101823.42;;;7.86;72.85
51147;BME280;37207;53.060;18.726;2023-05-27T03:14:38;101830.34;;;7.86;72.88
51147;BME280;37207;53.060;18.726;2023-05-27T03:17:04;101825.44;;;7.87;72.77
51147;BME280;37207;53.060;18.726;2023-05-27T03:19:30;101827.38;;;7.88;72.65
51147;BME280;37207;53.060;18.726;2023-05-27T03:21:56;101836.80;;;7.87;73.05
51147;BME280;37207;53.060;18.726;2023-05-27T03:24:24;101857.21;;;7.81;73.53
51147;BME280;37207;53.060;18.726;2023-05-27T03:26:51;101842.29;;;7.78;73.64
51147;BME280;37207;53.060;18.726;2023-05-27T03:29:18;101847.48;;;7.83;73.86
51147;BME280;37207;53.060;18.726;2023-05-27T03:31:44;101847.74;;;7.85;73.65
51147;BME280;37207;53.060;18.726;2023-05-27T03:34:13;101848.48;;;7.89;73.90
51147;BME280;37207;53.060;18.726;2023-05-27T03:36:40;101858.14;;;7.92;73.72
51147;BME280;37207;53.060;18.726;2023-05-27T03:39:08;101867.23;;;7.98;73.70
51147;BME280;37207;53.060;18.726;2023-05-27T03:41:35;101870.53;;;8.07;73.65
51147;BME280;37207;53.060;18.726;2023-05-27T03:44:01;101875.55;;;8.15;73.47
51147;BME280;37207;53.060;18.726;2023-05-27T03:46:27;101872.16;;;8.21;73.41
51147;BME280;37207;53.060;18.726;2023-05-27T03:48:53;101868.77;;;8.27;73.44
51147;BME280;37207;53.060;18.726;2023-05-27T03:51:20;101867.33;;;8.31;73.21
51147;BME280;37207;53.060;18.726;2023-05-27T03:53:46;101869.70;;;8.36;73.33
51147;BME280;37207;53.060;18.726;2023-05-27T03:56:12;101871.41;;;8.40;73.41
51147;BME280;37207;53.060;18.726;2023-05-27T03:58:38;101877.09;;;8.39;73.12
51147;BME280;37207;53.060;18.726;2023-05-27T04:01:04;101882.27;;;8.40;73.34
51147;BME280;37207;53.060;18.726;2023-05-27T04:03:31;101883.39;;;8.42;73.34
51147;BME280;37207;53.060;18.726;2023-05-27T04:05:58;101885.95;;;8.48;73.52
51147;BME280;37207;53.060;18.726;2023-05-27T04:08:24;101892.98;;;8.54;73.49
51147;BME280;37207;53.060;18.726;2023-05-27T04:10:56;101896.78;;;8.62;73.59
51147;BME280;37207;53.060;18.726;2023-05-27T04:13:24;101898.02;;;8.67;73.52
51147;BME280;37207;53.060;18.726;2023-05-27T04:15:50;101899.36;;;8.69;73.38
51147;BME280;37207;53.060;18.726;2023-05-27T04:18:16;101897.20;;;8.73;73.69
51147;BME280;37207;53.060;18.726;2023-05-27T04:20:43;101899.52;;;8.78;73.71
51147;BME280;37207;53.060;18.726;2023-05-27T04:23:11;101898.85;;;8.82;73.72
51147;BME280;37207;53.060;18.726;2023-05-27T04:25:37;101903.59;;;8.85;73.98
51147;BME280;37207;53.060;18.726;2023-05-27T04:28:05;101905.69;;;8.91;73.98
51147;BME280;37207;53.060;18.726;2023-05-27T04:30:33;101908.80;;;8.98;74.24
51147;BME280;37207;53.060;18.726;2023-05-27T04:32:59;101908.37;;;9.03;74.23
51147;BME280;37207;53.060;18.726;2023-05-27T04:35:26;101907.93;;;9.09;74.38
51147;BME280;37207;53.060;18.726;2023-05-27T04:37:53;101909.86;;;9.16;74.38
51147;BME280;37207;53.060;18.726;2023-05-27T04:40:20;101912.77;;;9.25;74.50
51147;BME280;37207;53.060;18.726;2023-05-27T04:43:04;101911.39;;;9.36;74.53
51147;BME280;37207;53.060;18.726;2023-05-27T04:45:31;101906.94;;;9.49;74.73
51147;BME280;37207;53.060;18.726;2023-05-27T04:47:58;101907.69;;;9.61;74.80
51147;BME280;37207;53.060;18.726;2023-05-27T04:50:26;101906.94;;;9.71;74.68
51147;BME280;37207;53.060;18.726;2023-05-27T04:52:52;101903.64;;;9.80;74.61
51147;BME280;37207;53.060;18.726;2023-05-27T04:55:19;101903.01;;;9.93;74.62
51147;BME280;37207;53.060;18.726;2023-05-27T04:57:44;101908.19;;;10.20;74.43
51147;BME280;37207;53.060;18.726;2023-05-27T05:00:12;101906.58;;;10.42;74.35
51147;BME280;37207;53.060;18.726;2023-05-27T05:02:38;101905.02;;;10.50;74.15
51147;BME280;37207;53.060;18.726;2023-05-27T05:05:10;101909.90;;;10.56;74.11
51147;BME280;37207;53.060;18.726;2023-05-27T05:07:38;101913.28;;;10.63;74.26
51147;BME280;37207;53.060;18.726;2023-05-27T05:10:10;101912.41;;;10.69;74.11
51147;BME280;37207;53.060;18.726;2023-05-27T05:12:44;101907.85;;;10.76;74.29
51147;BME280;37207;53.060;18.726;2023-05-27T05:15:10;101905.84;;;10.84;74.17
51147;BME280;37207;53.060;18.726;2023-05-27T05:17:36;101904.16;;;10.92;74.03
51147;BME280;37207;53.060;18.726;2023-05-27T05:20:02;101909.45;;;11.00;73.91
51147;BME280;37207;53.060;18.726;2023-05-27T05:22:29;101909.10;;;11.06;73.60
51147;BME280;37207;53.060;18.726;2023-05-27T05:24:55;101911.35;;;11.13;73.32
51147;BME280;37207;53.060;18.726;2023-05-27T05:27:28;101909.67;;;11.19;73.19
51147;BME280;37207;53.060;18.726;2023-05-27T05:29:54;101910.85;;;11.27;73.11
51147;BME280;37207;53.060;18.726;2023-05-27T05:32:20;101911.36;;;11.36;72.57
51147;BME280;37207;53.060;18.726;2023-05-27T05:34:46;101911.34;;;11.42;72.38
51147;BME280;37207;53.060;18.726;2023-05-27T05:37:12;101909.59;;;11.49;72.33
51147;BME280;37207;53.060;18.726;2023-05-27T05:39:40;101914.58;;;11.61;72.34
51147;BME280;37207;53.060;18.726;2023-05-27T05:42:07;101916.77;;;11.70;72.16
51147;BME280;37207;53.060;18.726;2023-05-27T05:44:33;101917.70;;;11.80;71.76
51147;BME280;37207;53.060;18.726;2023-05-27T05:47:00;101921.50;;;11.90;71.47
51147;BME280;37207;53.060;18.726;2023-05-27T05:49:26;101919.41;;;11.99;70.96
51147;BME280;37207;53.060;18.726;2023-05-27T05:51:52;101923.10;;;12.07;70.74
51147;BME280;37207;53.060;18.726;2023-05-27T05:54:18;101924.70;;;12.14;70.47
51147;BME280;37207;53.060;18.726;2023-05-27T05:56:48;101925.69;;;12.23;70.52
51147;BME280;37207;53.060;18.726;2023-05-27T05:59:14;101930.28;;;12.32;70.20
51147;BME280;37207;53.060;18.726;2023-05-27T06:01:40;101934.27;;;12.40;69.71
51147;BME280;37207;53.060;18.726;2023-05-27T06:04:06;101937.48;;;12.47;69.36
51147;BME280;37207;53.060;18.726;2023-05-27T06:06:35;101938.87;;;12.53;68.93
51147;BME280;37207;53.060;18.726;2023-05-27T06:09:16;101940.76;;;12.62;69.01
51147;BME280;37207;53.060;18.726;2023-05-27T06:11:42;101941.98;;;12.71;68.78
51147;BME280;37207;53.060;18.726;2023-05-27T06:14:08;101943.70;;;12.82;68.38
51147;BME280;37207;53.060;18.726;2023-05-27T06:16:34;101950.48;;;12.91;67.67
51147;BME280;37207;53.060;18.726;2023-05-27T06:19:05;101948.02;;;12.98;66.92
51147;BME280;37207;53.060;18.726;2023-05-27T06:21:31;101947.58;;;13.03;65.80
51147;BME280;37207;53.060;18.726;2023-05-27T06:24:17;101943.20;;;13.10;65.56
51147;BME280;37207;53.060;18.726;2023-05-27T06:26:47;101943.05;;;13.17;65.00
51147;BME280;37207;53.060;18.726;2023-05-27T06:29:15;101947.52;;;13.24;65.05
51147;BME280;37207;53.060;18.726;2023-05-27T06:31:42;101950.73;;;13.35;64.89
51147;BME280;37207;53.060;18.726;2023-05-27T06:34:07;101953.77;;;13.46;64.73
51147;BME280;37207;53.060;18.726;2023-05-27T06:36:33;101951.48;;;13.58;64.77
51147;BME280;37207;53.060;18.726;2023-05-27T06:38:59;101948.12;;;13.71;64.57
51147;BME280;37207;53.060;18.726;2023-05-27T06:41:26;101947.19;;;13.85;63.68
51147;BME280;37207;53.060;18.726;2023-05-27T06:44:14;101945.20;;;14.00;63.14
51147;BME280;37207;53.060;18.726;2023-05-27T06:46:56;101953.64;;;14.14;62.77
51147;BME280;37207;53.060;18.726;2023-05-27T06:49:31;101956.59;;;14.29;62.54
51147;BME280;37207;53.060;18.726;2023-05-27T06:51:59;101956.05;;;14.44;61.71
51147;BME280;37207;53.060;18.726;2023-05-27T06:54:26;101956.70;;;14.58;61.69
51147;BME280;37207;53.060;18.726;2023-05-27T06:56:55;101952.67;;;14.75;61.35
51147;BME280;37207;53.060;18.726;2023-05-27T06:59:56;101954.45;;;14.92;60.07
51147;BME280;37207;53.060;18.726;2023-05-27T07:02:22;101947.88;;;15.07;60.04
51147;BME280;37207;53.060;18.726;2023-05-27T07:04:48;101943.41;;;15.23;59.41
51147;BME280;37207;53.060;18.726;2023-05-27T07:07:15;101942.66;;;15.43;59.36
51147;BME280;37207;53.060;18.726;2023-05-27T07:09:41;101942.54;;;15.64;58.72
51147;BME280;37207;53.060;18.726;2023-05-27T07:12:07;101944.46;;;15.83;57.27
51147;BME280;37207;53.060;18.726;2023-05-27T07:14:43;101939.34;;;15.96;57.14
51147;BME280;37207;53.060;18.726;2023-05-27T07:17:09;101940.24;;;16.15;56.72
51147;BME280;37207;53.060;18.726;2023-05-27T07:19:36;101941.85;;;16.30;56.17
51147;BME280;37207;53.060;18.726;2023-05-27T07:22:04;101943.86;;;16.47;55.39
51147;BME280;37207;53.060;18.726;2023-05-27T07:24:31;101940.83;;;16.59;54.71
51147;BME280;37207;53.060;18.726;2023-05-27T07:26:57;101937.46;;;16.73;54.64
51147;BME280;37207;53.060;18.726;2023-05-27T07:29:24;101934.16;;;16.88;54.50
51147;BME280;37207;53.060;18.726;2023-05-27T07:31:53;101932.55;;;17.08;54.35
51147;BME280;37207;53.060;18.726;2023-05-27T07:34:23;101932.81;;;17.28;53.61
51147;BME280;37207;53.060;18.726;2023-05-27T07:36:49;101930.15;;;17.45;53.14
51147;BME280;37207;53.060;18.726;2023-05-27T07:39:15;101931.84;;;17.60;52.09
51147;BME280;37207;53.060;18.726;2023-05-27T07:41:41;101929.70;;;17.72;51.39
51147;BME280;37207;53.060;18.726;2023-05-27T07:44:07;101926.13;;;17.83;51.24
51147;BME280;37207;53.060;18.726;2023-05-27T07:46:34;101929.16;;;17.99;51.57
51147;BME280;37207;53.060;18.726;2023-05-27T07:49:00;101925.29;;;18.22;51.35
51147;BME280;37207;53.060;18.726;2023-05-27T07:51:26;101921.52;;;18.45;51.04
51147;BME280;37207;53.060;18.726;2023-05-27T07:53:52;101922.74;;;18.60;49.49
51147;BME280;37207;53.060;18.726;2023-05-27T07:56:19;101918.16;;;18.76;48.54
51147;BME280;37207;53.060;18.726;2023-05-27T07:58:45;101919.13;;;18.80;47.35
51147;BME280;37207;53.060;18.726;2023-05-27T08:01:12;101921.64;;;18.92;48.09
51147;BME280;37207;53.060;18.726;2023-05-27T08:03:39;101919.85;;;19.16;48.20
51147;BME280;37207;53.060;18.726;2023-05-27T08:06:26;101922.27;;;19.38;47.28
51147;BME280;37207;53.060;18.726;2023-05-27T08:09:10;101926.64;;;19.57;47.06
51147;BME280;37207;53.060;18.726;2023-05-27T08:11:57;101927.61;;;19.75;46.34
51147;BME280;37207;53.060;18.726;2023-05-27T08:14:53;101923.40;;;19.96;46.07
51147;BME280;37207;53.060;18.726;2023-05-27T08:17:28;101915.04;;;20.11;45.40
51147;BME280;37207;53.060;18.726;2023-05-27T08:20:06;101919.41;;;20.22;43.83
51147;BME280;37207;53.060;18.726;2023-05-27T08:22:55;101916.05;;;20.34;43.49
51147;BME280;37207;53.060;18.726;2023-05-27T08:25:43;101920.13;;;20.48;42.96
51147;BME280;37207;53.060;18.726;2023-05-27T08:28:18;101926.39;;;20.66;42.45
51147;BME280;37207;53.060;18.726;2023-05-27T08:30:54;101924.54;;;20.79;42.45
51147;BME280;37207;53.060;18.726;2023-05-27T08:33:27;101923.35;;;20.94;42.16
51147;BME280;37207;53.060;18.726;2023-05-27T08:35:56;101925.45;;;21.12;41.72
51147;BME280;37207;53.060;18.726;2023-05-27T08:38:25;101914.18;;;21.27;40.91
51147;BME280;37207;53.060;18.726;2023-05-27T08:41:00;101911.75;;;21.37;40.22
51147;BME280;37207;53.060;18.726;2023-05-27T08:43:27;101908.44;;;21.52;40.34
51147;BME280;37207;53.060;18.726;2023-05-27T08:45:57;101903.39;;;21.69;39.49
51147;BME280;37207;53.060;18.726;2023-05-27T08:48:24;101900.83;;;21.74;37.78
51147;BME280;37207;53.060;18.726;2023-05-27T08:50:51;101904.70;;;21.81;38.69
51147;BME280;37207;53.060;18.726;2023-05-27T08:53:18;101906.39;;;21.96;38.23
51147;BME280;37207;53.060;18.726;2023-05-27T08:55:46;101902.89;;;22.15;38.19
51147;BME280;37207;53.060;18.726;2023-05-27T08:58:16;101902.66;;;22.35;37.93
51147;BME280;37207;53.060;18.726;2023-05-27T09:00:45;101904.39;;;22.56;37.49
51147;BME280;37207;53.060;18.726;2023-05-27T09:03:17;101906.60;;;22.73;36.75
51147;BME280;37207;53.060;18.726;2023-05-27T09:05:44;101909.48;;;22.80;35.98
51147;BME280;37207;53.060;18.726;2023-05-27T09:08:10;101906.40;;;22.85;34.83
51147;BME280;37207;53.060;18.726;2023-05-27T09:10:38;101903.28;;;23.01;34.07
51147;BME280;37207;53.060;18.726;2023-05-27T09:13:04;101904.91;;;23.31;33.84
51147;BME280;37207;53.060;18.726;2023-05-27T09:15:31;101905.30;;;23.95;33.62
51147;BME280;37207;53.060;18.726;2023-05-27T09:17:58;101907.83;;;24.77;32.79
51147;BME280;37207;53.060;18.726;2023-05-27T09:20:28;101906.63;;;25.19;31.77
51147;BME280;37207;53.060;18.726;2023-05-27T09:22:58;101906.27;;;25.42;31.39
51147;BME280;37207;53.060;18.726;2023-05-27T09:25:25;101907.42;;;25.84;31.29
51147;BME280;37207;53.060;18.726;2023-05-27T09:27:51;101897.27;;;25.91;30.54
51147;BME280;37207;53.060;18.726;2023-05-27T09:30:19;101904.75;;;25.62;30.64
51147;BME280;37207;53.060;18.726;2023-05-27T09:32:45;101905.75;;;25.59;30.69
51147;BME280;37207;53.060;18.726;2023-05-27T09:35:12;101906.70;;;25.43;29.95
51147;BME280;37207;53.060;18.726;2023-05-27T09:37:38;101906.63;;;25.29;30.71
51147;BME280;37207;53.060;18.726;2023-05-27T09:40:06;101908.60;;;25.27;30.16
51147;BME280;37207;53.060;18.726;2023-05-27T09:42:47;101903.43;;;25.25;30.44
51147;BME280;37207;53.060;18.726;2023-05-27T09:45:18;101902.13;;;25.16;29.50
51147;BME280;37207;53.060;18.726;2023-05-27T09:47:52;101902.25;;;25.12;30.36
51147;BME280;37207;53.060;18.726;2023-05-27T09:50:19;101901.99;;;25.18;30.34
51147;BME280;37207;53.060;18.726;2023-05-27T09:52:46;101900.73;;;25.17;30.18
51147;BME280;37207;53.060;18.726;2023-05-27T09:55:14;101900.41;;;25.25;30.96
51147;BME280;37207;53.060;18.726;2023-05-27T09:57:41;101901.48;;;25.39;30.77
51147;BME280;37207;53.060;18.726;2023-05-27T10:00:08;101900.27;;;25.48;30.48
51147;BME280;37207;53.060;18.726;2023-05-27T10:02:42;101902.89;;;25.52;30.64
51147;BME280;37207;53.060;18.726;2023-05-27T10:05:10;101902.88;;;25.57;30.35
51147;BME280;37207;53.060;18.726;2023-05-27T10:07:39;101904.05;;;25.68;30.56
51147;BME280;37207;53.060;18.726;2023-05-27T10:10:07;101898.43;;;25.79;29.96
51147;BME280;37207;53.060;18.726;2023-05-27T10:12:36;101895.53;;;25.87;30.79
51147;BME280;37207;53.060;18.726;2023-05-27T10:15:03;101894.80;;;25.99;30.56
51147;BME280;37207;53.060;18.726;2023-05-27T10:17:46;101889.40;;;26.03;30.64
51147;BME280;37207;53.060;18.726;2023-05-27T10:20:12;101888.29;;;26.08;30.13
51147;BME280;37207;53.060;18.726;2023-05-27T10:22:49;101884.99;;;26.05;29.69
51147;BME280;37207;53.060;18.726;2023-05-27T10:25:14;101881.50;;;26.11;30.23
51147;BME280;37207;53.060;18.726;2023-05-27T10:27:45;101887.11;;;26.06;28.15
51147;BME280;37207;53.060;18.726;2023-05-27T10:30:13;101887.85;;;25.91;28.93
51147;BME280;37207;53.060;18.726;2023-05-27T10:32:44;101884.64;;;25.93;29.01
51147;BME280;37207;53.060;18.726;2023-05-27T10:35:13;101878.50;;;26.15;29.74
51147;BME280;37207;53.060;18.726;2023-05-27T10:37:41;101887.27;;;26.41;29.35
51147;BME280;37207;53.060;18.726;2023-05-27T10:40:07;101882.73;;;26.68;29.10
51147;BME280;37207;53.060;18.726;2023-05-27T10:42:33;101877.30;;;27.14;29.29
51147;BME280;37207;53.060;18.726;2023-05-27T10:45:08;101880.34;;;27.68;28.73
51147;BME280;37207;53.060;18.726;2023-05-27T10:47:35;101872.59;;;28.30;28.10
51147;BME280;37207;53.060;18.726;2023-05-27T10:50:11;101870.72;;;29.03;27.49
51147;BME280;37207;53.060;18.726;2023-05-27T10:52:39;101872.41;;;29.77;26.66
51147;BME280;37207;53.060;18.726;2023-05-27T10:55:06;101870.53;;;30.33;25.66
51147;BME280;37207;53.060;18.726;2023-05-27T10:57:35;101863.80;;;30.99;25.39
51147;BME280;37207;53.060;18.726;2023-05-27T11:00:05;101856.77;;;31.59;24.71
51147;BME280;37207;53.060;18.726;2023-05-27T11:02:38;101857.77;;;32.10;24.25
51147;BME280;37207;53.060;18.726;2023-05-27T11:05:13;101853.62;;;32.50;23.58
51147;BME280;37207;53.060;18.726;2023-05-27T11:07:40;101859.45;;;32.79;22.90
51147;BME280;37207;53.060;18.726;2023-05-27T11:10:08;101853.99;;;33.03;22.91
51147;BME280;37207;53.060;18.726;2023-05-27T11:12:34;101850.16;;;33.30;22.67
51147;BME280;37207;53.060;18.726;2023-05-27T11:15:00;101855.80;;;33.46;22.32
51147;BME280;37207;53.060;18.726;2023-05-27T11:17:26;101854.38;;;33.47;21.71
51147;BME280;37207;53.060;18.726;2023-05-27T11:19:53;101851.52;;;33.42;21.93
51147;BME280;37207;53.060;18.726;2023-05-27T11:22:20;101844.27;;;33.34;21.64
51147;BME280;37207;53.060;18.726;2023-05-27T11:27:22;101836.20;;;32.89;21.88
51147;BME280;37207;53.060;18.726;2023-05-27T11:29:51;101839.64;;;32.61;22.02
51147;BME280;37207;53.060;18.726;2023-05-27T11:32:18;101837.55;;;32.28;21.33
51147;BME280;37207;53.060;18.726;2023-05-27T11:34:45;101833.13;;;31.89;21.82
51147;BME280;37207;53.060;18.726;2023-05-27T11:37:11;101831.58;;;31.63;22.49
51147;BME280;37207;53.060;18.726;2023-05-27T11:39:37;101832.54;;;31.42;22.70
51147;BME280;37207;53.060;18.726;2023-05-27T11:42:08;101835.40;;;31.20;21.93
51147;BME280;37207;53.060;18.726;2023-05-27T11:44:34;101827.17;;;30.78;21.97
51147;BME280;37207;53.060;18.726;2023-05-27T11:47:00;101830.69;;;30.51;22.83
51147;BME280;37207;53.060;18.726;2023-05-27T11:49:27;101830.05;;;30.27;22.75
51147;BME280;37207;53.060;18.726;2023-05-27T11:51:56;101822.67;;;29.98;23.06
51147;BME280;37207;53.060;18.726;2023-05-27T11:54:29;101818.99;;;29.71;23.34
51147;BME280;37207;53.060;18.726;2023-05-27T11:56:57;101819.78;;;29.43;23.05
51147;BME280;37207;53.060;18.726;2023-05-27T11:59:24;101822.02;;;29.32;23.61
51147;BME280;37207;53.060;18.726;2023-05-27T12:01:51;101817.89;;;29.25;23.25
51147;BME280;37207;53.060;18.726;2023-05-27T12:04:20;101811.67;;;29.17;23.56
51147;BME280;37207;53.060;18.726;2023-05-27T12:06:45;101805.66;;;29.13;23.39
51147;BME280;37207;53.060;18.726;2023-05-27T12:09:11;101803.27;;;29.04;23.26
51147;BME280;37207;53.060;18.726;2023-05-27T12:11:38;101805.67;;;28.97;23.02
51147;BME280;37207;53.060;18.726;2023-05-27T12:14:04;101801.58;;;28.88;23.56
51147;BME280;37207;53.060;18.726;2023-05-27T12:16:31;101802.64;;;28.89;23.85
51147;BME280;37207;53.060;18.726;2023-05-27T12:18:58;101798.30;;;28.92;23.49
51147;BME280;37207;53.060;18.726;2023-05-27T12:21:25;101796.98;;;28.95;23.63
51147;BME280;37207;53.060;18.726;2023-05-27T12:23:51;101799.46;;;28.90;22.89
51147;BME280;37207;53.060;18.726;2023-05-27T12:26:17;101797.54;;;28.76;23.21
51147;BME280;37207;53.060;18.726;2023-05-27T12:28:44;101794.34;;;28.69;23.89
51147;BME280;37207;53.060;18.726;2023-05-27T12:31:11;101790.15;;;28.72;23.66
51147;BME280;37207;53.060;18.726;2023-05-27T12:33:37;101790.31;;;28.77;24.11
51147;BME280;37207;53.060;18.726;2023-05-27T12:36:03;101789.77;;;28.86;23.85
51147;BME280;37207;53.060;18.726;2023-05-27T12:38:31;101791.96;;;28.87;23.35
51147;BME280;37207;53.060;18.726;2023-05-27T12:40:57;101786.09;;;28.78;23.29
51147;BME280;37207;53.060;18.726;2023-05-27T12:43:23;101786.37;;;28.71;23.28
51147;BME280;37207;53.060;18.726;2023-05-27T12:45:50;101786.05;;;28.74;23.85
51147;BME280;37207;53.060;18.726;2023-05-27T12:48:18;101786.20;;;28.78;23.67
51147;BME280;37207;53.060;18.726;2023-05-27T12:50:44;101785.09;;;28.69;23.10
51147;BME280;37207;53.060;18.726;2023-05-27T12:53:10;101783.70;;;28.65;23.25